createdAt,value
2022-09-24T00:01:55.513Z,16.20
2022-09-24T00:06:54.197Z,16.10
2022-09-24T00:11:53.840Z,16.20
2022-09-24T00:16:51.973Z,16.20
2022-09-24T00:21:50.126Z,16.10
2022-09-24T00:26:50.929Z,16.10
2022-09-24T00:31:51.825Z,16.10
2022-09-24T00:36:50.105Z,16.00
2022-09-24T00:41:49.077Z,16.00
2022-09-24T00:46:47.975Z,16.00
2022-09-24T00:51:51.320Z,16.00
2022-09-24T00:56:51.195Z,16.00
2022-09-24T01:01:50.422Z,16.00
2022-09-24T01:06:50.609Z,15.90
2022-09-24T01:11:57.053Z,16.00
2022-09-24T01:17:04.139Z,15.90
2022-09-24T01:22:07.288Z,15.90
2022-09-24T01:27:12.415Z,15.90
2022-09-24T01:32:18.816Z,15.90
2022-09-24T01:37:22.334Z,15.80
2022-09-24T01:42:22.077Z,15.80
2022-09-24T01:47:30.940Z,15.80
2022-09-24T01:52:36.556Z,15.80
2022-09-24T01:57:40.065Z,15.80
2022-09-24T02:02:44.081Z,15.80
2022-09-24T02:07:50.690Z,15.70
2022-09-24T02:12:52.681Z,15.70
2022-09-24T02:17:59.156Z,15.70
2022-09-24T02:22:58.506Z,15.70
2022-09-24T02:27:57.250Z,15.70
2022-09-24T02:32:58.316Z,15.70
2022-09-24T02:37:56.586Z,15.70
2022-09-24T02:42:54.742Z,15.70
2022-09-24T02:47:52.935Z,15.70
2022-09-24T02:52:53.071Z,15.70
2022-09-24T02:57:51.261Z,15.60
2022-09-24T03:02:50.092Z,15.60
2022-09-24T03:07:48.353Z,15.60
2022-09-24T03:12:47.820Z,15.60
2022-09-24T03:17:46.037Z,15.70
2022-09-24T03:22:44.249Z,15.60
2022-09-24T03:27:42.375Z,15.60
2022-09-24T03:32:41.875Z,15.60
2022-09-24T03:37:47.054Z,15.60
2022-09-24T03:42:47.212Z,15.60
2022-09-24T03:47:46.704Z,15.60
2022-09-24T03:52:44.824Z,15.50
2022-09-24T03:57:42.948Z,15.50
2022-09-24T04:02:41.684Z,15.50
2022-09-24T04:07:41.795Z,15.50
2022-09-24T04:12:39.958Z,15.50
2022-09-24T04:17:38.081Z,15.50
2022-09-24T04:22:36.177Z,15.50
2022-09-24T04:27:36.654Z,15.50
2022-09-24T04:32:34.837Z,15.50
2022-09-24T04:37:33.028Z,15.40
2022-09-24T04:42:31.142Z,15.50
2022-09-24T04:47:30.658Z,15.40
2022-09-24T04:52:29.690Z,15.40
2022-09-24T04:57:28.301Z,15.40
2022-09-24T05:02:26.561Z,15.40
2022-09-24T05:07:26.507Z,15.40
2022-09-24T05:12:24.772Z,15.40
2022-09-24T05:17:23.028Z,15.40
2022-09-24T05:22:21.302Z,15.40
2022-09-24T05:27:21.745Z,15.40
2022-09-24T05:32:21.696Z,15.40
2022-09-24T05:37:19.883Z,15.40
2022-09-24T05:42:18.185Z,15.40
2022-09-24T05:47:18.008Z,15.40
2022-09-24T05:52:16.367Z,15.30
2022-09-24T05:57:15.628Z,15.30
2022-09-24T06:02:14.202Z,15.40
2022-09-24T06:07:13.821Z,15.30
2022-09-24T06:12:12.024Z,15.30
2022-09-24T06:17:10.194Z,15.30
2022-09-24T06:22:08.379Z,15.30
2022-09-24T06:27:07.911Z,15.40
2022-09-24T06:32:06.288Z,15.30
2022-09-24T06:37:04.560Z,15.30
2022-09-24T06:42:02.705Z,15.40
2022-09-24T06:47:07.072Z,15.30
2022-09-24T06:52:05.305Z,15.30
2022-09-24T06:57:04.287Z,15.30
2022-09-24T07:02:02.681Z,15.30
2022-09-24T07:07:19.966Z,15.30
2022-09-24T07:12:18.301Z,15.40
2022-09-24T07:17:16.964Z,15.40
2022-09-24T07:22:16.627Z,15.40
2022-09-24T07:27:16.261Z,15.40
2022-09-24T07:32:16.306Z,15.40
2022-09-24T07:37:14.643Z,15.40
2022-09-24T07:42:14.516Z,15.40
2022-09-24T07:47:15.613Z,15.50
2022-09-24T07:52:14.004Z,15.50
2022-09-24T07:57:14.016Z,15.50
2022-09-24T08:02:17.840Z,15.50
2022-09-24T08:07:16.223Z,15.50
2022-09-24T08:12:15.723Z,15.50
2022-09-24T08:17:13.917Z,15.60
2022-09-24T08:22:12.229Z,15.60
2022-09-24T08:27:15.027Z,15.60
2022-09-24T08:32:17.924Z,15.60
2022-09-24T08:37:16.065Z,15.70
2022-09-24T08:42:23.714Z,15.70
2022-09-24T08:47:34.936Z,15.70
2022-09-24T08:52:47.187Z,15.70
2022-09-24T08:57:52.144Z,15.80
2022-09-24T09:03:02.226Z,15.80
2022-09-24T09:08:33.983Z,15.90
2022-09-24T09:13:33.035Z,15.90
2022-09-24T09:18:38.518Z,15.90
2022-09-24T09:23:46.953Z,16.00
2022-09-24T09:28:45.656Z,16.00
2022-09-24T09:33:56.901Z,16.00
2022-09-24T09:39:02.307Z,16.10
2022-09-24T09:44:12.044Z,16.10
2022-09-24T09:49:12.084Z,16.10
2022-09-24T09:54:11.521Z,16.10
2022-09-24T09:59:19.288Z,16.10
2022-09-24T10:04:32.612Z,16.20
2022-09-24T10:09:30.761Z,16.20
2022-09-24T10:14:28.942Z,16.20
2022-09-24T10:19:29.915Z,16.20
2022-09-24T10:24:30.176Z,16.20
2022-09-24T10:29:51.406Z,16.20
2022-09-24T10:34:58.635Z,16.20
2022-09-24T10:40:02.280Z,16.30
2022-09-24T10:45:03.544Z,16.30
2022-09-24T10:50:26.692Z,16.30
2022-09-24T10:55:39.145Z,16.40
2022-09-24T11:00:42.078Z,16.40
2022-09-24T11:05:46.448Z,16.50
2022-09-24T11:11:12.294Z,16.60
2022-09-24T11:16:27.596Z,16.70
2022-09-24T11:21:45.590Z,16.70
2022-09-24T11:26:56.917Z,16.70
2022-09-24T11:32:06.860Z,16.80
2022-09-24T11:37:18.382Z,16.90
2022-09-24T11:42:23.341Z,16.90
2022-09-24T11:47:37.606Z,16.90
2022-09-24T11:52:41.931Z,17.00
2022-09-24T11:57:44.521Z,16.90
2022-09-24T12:02:48.181Z,16.90
2022-09-24T12:07:50.989Z,17.00
2022-09-24T12:12:51.368Z,16.90
2022-09-24T12:17:54.676Z,16.90
2022-09-24T12:22:59.990Z,17.00
2022-09-24T12:28:00.340Z,17.00
2022-09-24T12:33:05.155Z,17.00
2022-09-24T12:38:08.918Z,17.00
2022-09-24T12:43:19.269Z,17.00
2022-09-24T12:48:17.916Z,17.10
2022-09-24T12:53:25.346Z,17.10
2022-09-24T12:58:30.409Z,17.10
2022-09-24T13:03:34.984Z,17.10
2022-09-24T13:08:41.842Z,17.10
2022-09-24T13:13:40.886Z,17.10
2022-09-24T13:18:39.253Z,17.10
2022-09-24T13:23:49.693Z,17.20
2022-09-24T13:28:58.682Z,17.30
2022-09-24T13:34:00.071Z,17.30
2022-09-24T13:39:06.006Z,17.30
2022-09-24T13:44:08.959Z,17.30
2022-09-24T13:49:12.698Z,17.30
2022-09-24T13:54:18.411Z,17.30
2022-09-24T13:59:16.837Z,17.30
2022-09-24T14:04:18.428Z,17.30
2022-09-24T14:09:26.655Z,17.30
2022-09-24T14:14:27.901Z,17.20
2022-09-24T14:19:26.076Z,17.20
2022-09-24T14:24:28.530Z,17.30
2022-09-24T14:29:29.442Z,17.30
2022-09-24T14:34:30.981Z,17.30
2022-09-24T14:39:31.144Z,17.30
2022-09-24T14:44:31.678Z,17.20
2022-09-24T14:49:32.628Z,17.20
2022-09-24T14:54:35.245Z,17.10
2022-09-24T14:59:38.433Z,17.10
2022-09-24T15:04:37.925Z,17.10
2022-09-24T15:09:37.488Z,17.10
2022-09-24T15:14:36.735Z,17.00
2022-09-24T15:19:36.287Z,17.00
2022-09-24T15:24:34.584Z,17.00
2022-09-24T15:29:34.298Z,16.90
2022-09-24T15:34:32.613Z,16.90
2022-09-24T15:39:31.939Z,16.90
2022-09-24T15:44:34.014Z,16.80
2022-09-24T15:49:34.024Z,16.80
2022-09-24T15:54:32.227Z,16.70
2022-09-24T15:59:30.494Z,16.70
2022-09-24T16:04:28.793Z,16.60
2022-09-24T16:09:28.384Z,16.60
2022-09-24T16:14:26.677Z,16.50
2022-09-24T16:19:25.098Z,16.50
2022-09-24T16:24:23.479Z,16.50
2022-09-24T16:29:23.337Z,16.50
2022-09-24T16:34:21.816Z,16.50
2022-09-24T16:39:20.148Z,16.40
2022-09-24T16:44:19.319Z,16.50
2022-09-24T16:49:19.396Z,16.40
2022-09-24T16:54:18.993Z,16.40
2022-09-24T16:59:18.196Z,16.50
2022-09-24T17:04:17.984Z,16.40
2022-09-24T17:09:33.589Z,16.40
2022-09-24T17:14:31.693Z,16.40
2022-09-24T17:19:31.420Z,16.40
2022-09-24T17:24:30.393Z,16.30
2022-09-24T17:29:31.762Z,16.40
2022-09-24T17:34:31.633Z,16.40
2022-09-24T17:39:30.831Z,16.40
2022-09-24T17:44:29.185Z,16.40
2022-09-24T17:49:27.399Z,16.30
2022-09-24T17:54:27.163Z,16.40
2022-09-24T17:59:26.951Z,16.30
2022-09-24T18:04:28.296Z,16.30
2022-09-24T18:09:28.146Z,16.30
2022-09-24T18:14:26.429Z,16.30
2022-09-24T18:19:24.675Z,16.30
2022-09-24T18:24:22.983Z,16.30
2022-09-24T18:29:22.620Z,16.20
2022-09-24T18:34:20.789Z,16.20
2022-09-24T18:39:24.821Z,16.20
2022-09-24T18:44:24.942Z,16.20
2022-09-24T18:49:24.067Z,16.20
2022-09-24T18:54:22.261Z,16.20
2022-09-24T18:59:21.263Z,16.20
2022-09-24T19:04:20.827Z,16.20
2022-09-24T19:09:21.062Z,16.20
2022-09-24T19:14:19.306Z,16.20
2022-09-24T19:19:17.539Z,16.20
2022-09-24T19:24:17.165Z,16.20
2022-09-24T19:29:15.338Z,16.10
2022-09-24T19:34:15.311Z,16.20
2022-09-24T19:39:17.196Z,16.10
2022-09-24T19:44:16.499Z,16.10
2022-09-24T19:49:15.076Z,16.10
2022-09-24T19:54:13.378Z,16.10
2022-09-24T19:59:13.719Z,16.10
2022-09-24T20:04:12.023Z,16.10
2022-09-24T20:09:10.401Z,16.10
2022-09-24T20:14:13.286Z,16.10
2022-09-24T20:19:14.624Z,16.10
2022-09-24T20:24:13.772Z,16.10
2022-09-24T20:29:13.091Z,16.00
2022-09-24T20:34:13.655Z,16.00
2022-09-24T20:39:11.825Z,16.00
2022-09-24T20:44:10.548Z,16.00
2022-09-24T20:49:09.092Z,16.00
2022-09-24T20:54:08.952Z,16.00
2022-09-24T20:59:07.695Z,16.00
2022-09-24T21:04:05.915Z,16.00
2022-09-24T21:09:04.268Z,16.00
2022-09-24T21:14:03.873Z,16.00
2022-09-24T21:19:04.700Z,16.00
2022-09-24T21:24:03.484Z,16.00
2022-09-24T21:29:05.480Z,16.00
2022-09-24T21:34:05.161Z,16.00
2022-09-24T21:39:05.897Z,16.00
2022-09-24T21:44:06.434Z,16.00
2022-09-24T21:49:04.708Z,16.00
2022-09-24T21:54:05.064Z,16.00
2022-09-24T21:59:27.330Z,16.00
2022-09-24T22:04:25.788Z,16.00
2022-09-24T22:09:24.773Z,16.00
2022-09-24T22:14:24.456Z,16.00
2022-09-24T22:19:22.638Z,16.00
2022-09-24T22:24:20.862Z,16.00
2022-09-24T22:29:18.963Z,16.00
2022-09-24T22:34:36.124Z,16.00
2022-09-24T22:39:35.674Z,16.00
2022-09-24T22:44:33.848Z,15.90
2022-09-24T22:49:33.745Z,16.00
2022-09-24T22:54:31.876Z,16.00
2022-09-24T22:59:30.068Z,16.00
2022-09-24T23:04:28.160Z,16.00
2022-09-24T23:09:27.728Z,16.00
2022-09-24T23:14:26.014Z,16.00
2022-09-24T23:19:44.282Z,15.90
2022-09-24T23:24:43.941Z,15.90
2022-09-24T23:29:42.052Z,15.90
2022-09-24T23:34:40.283Z,15.90
2022-09-24T23:39:39.096Z,15.90
2022-09-24T23:44:38.829Z,15.90
2022-09-24T23:49:37.029Z,15.90
2022-09-24T23:54:37.491Z,15.90
2022-09-24T23:59:35.910Z,15.90
